createdAt,value
2023-03-25T18:00:18.692Z,1.00
2023-03-25T18:02:46.653Z,1.65
2023-03-25T18:05:13.383Z,1.10
2023-03-25T18:07:40.072Z,1.10
2023-03-25T18:10:15.987Z,0.95
2023-03-25T18:12:43.043Z,0.98
2023-03-25T18:15:10.523Z,0.80
2023-03-25T18:17:37.083Z,1.15
2023-03-25T18:20:15.555Z,0.80
2023-03-25T18:22:42.370Z,1.08
2023-03-25T18:25:10.071Z,0.85
2023-03-25T18:27:43.094Z,0.82
2023-03-25T18:30:25.656Z,0.98
2023-03-25T18:32:52.538Z,0.82
2023-03-25T18:35:19.380Z,0.70
2023-03-25T18:37:48.766Z,0.82
2023-03-25T18:40:23.331Z,0.90
2023-03-25T18:42:51.742Z,1.08
2023-03-25T18:45:20.246Z,1.10
2023-03-25T18:47:49.764Z,1.10
2023-03-25T18:50:33.774Z,0.98
2023-03-25T18:53:01.122Z,1.30
2023-03-25T18:55:29.697Z,0.70
2023-03-25T18:57:57.442Z,0.88
2023-03-25T19:00:31.134Z,0.90
2023-03-25T19:02:58.609Z,0.70
2023-03-25T19:05:26.246Z,0.85
2023-03-25T19:07:53.699Z,0.70
2023-03-25T19:10:26.761Z,0.77
2023-03-25T19:12:53.663Z,0.80
2023-03-25T19:15:21.918Z,0.95
2023-03-25T19:17:48.953Z,0.80
2023-03-25T19:20:24.468Z,0.75
2023-03-25T19:22:52.371Z,0.80
2023-03-25T19:25:19.872Z,0.80
2023-03-25T19:27:46.997Z,0.90
2023-03-25T19:30:17.045Z,0.80
2023-03-25T19:32:44.513Z,0.70
2023-03-25T19:35:12.558Z,0.73
2023-03-25T19:37:46.681Z,0.68
2023-03-25T19:40:19.104Z,0.60
2023-03-25T19:42:46.374Z,0.73
2023-03-25T19:45:13.894Z,0.70
2023-03-25T19:47:45.736Z,0.60
2023-03-25T19:50:19.042Z,0.80
2023-03-25T19:52:48.237Z,0.60
2023-03-25T19:55:16.669Z,0.70
2023-03-25T19:57:45.026Z,0.77
2023-03-25T20:00:20.641Z,0.70
2023-03-25T20:02:50.852Z,0.60
2023-03-25T20:05:19.328Z,0.82
2023-03-25T20:07:52.310Z,0.65
2023-03-25T20:10:21.427Z,0.70
2023-03-25T20:12:49.514Z,0.63
2023-03-25T20:15:26.967Z,0.70
2023-03-25T20:17:54.695Z,0.60
2023-03-25T20:20:22.259Z,1.00
2023-03-25T20:22:48.895Z,0.60
2023-03-25T20:25:16.267Z,0.60
2023-03-25T20:27:43.722Z,0.60
2023-03-25T20:30:13.938Z,0.82
2023-03-25T20:32:42.674Z,0.55
2023-03-25T20:35:13.128Z,0.55
2023-03-25T20:37:41.194Z,0.60
2023-03-25T20:40:11.605Z,0.70
2023-03-25T20:42:43.144Z,0.50
2023-03-25T20:45:12.573Z,0.65
2023-03-25T20:47:39.404Z,0.52
2023-03-25T20:50:07.056Z,0.60
2023-03-25T20:52:34.259Z,0.52
2023-03-25T20:55:01.422Z,0.60
2023-03-25T20:57:27.997Z,0.50
2023-03-25T20:59:54.494Z,0.70
2023-03-25T21:02:21.401Z,0.40
2023-03-25T21:04:48.698Z,0.60
2023-03-25T21:07:18.673Z,0.70
2023-03-25T21:09:47.249Z,0.55
2023-03-25T21:12:13.918Z,0.40
2023-03-25T21:14:41.551Z,0.50
2023-03-25T21:17:09.984Z,0.70
2023-03-25T21:19:37.142Z,0.50
2023-03-25T21:22:04.398Z,0.60
2023-03-25T21:24:34.212Z,0.60
2023-03-25T21:27:02.756Z,0.63
2023-03-25T21:29:29.886Z,0.60
2023-03-25T21:31:57.970Z,0.40
2023-03-25T21:34:25.133Z,0.50
2023-03-25T21:36:51.684Z,0.40
2023-03-25T21:39:18.298Z,0.43
2023-03-25T21:41:44.806Z,0.40
2023-03-25T21:44:12.667Z,0.57
2023-03-25T21:46:40.984Z,0.40
2023-03-25T21:49:08.771Z,0.60
2023-03-25T21:51:42.304Z,0.40
2023-03-25T21:54:09.825Z,0.45
2023-03-25T21:56:40.123Z,0.40
2023-03-25T21:59:06.799Z,0.50
2023-03-25T22:01:33.591Z,0.43
2023-03-25T22:04:01.487Z,0.43
2023-03-25T22:06:30.989Z,0.30
2023-03-25T22:08:57.842Z,0.32
2023-03-25T22:11:31.279Z,0.60
2023-03-25T22:13:58.283Z,0.43
2023-03-25T22:16:25.808Z,0.50
2023-03-25T22:18:53.501Z,0.40
2023-03-25T22:21:21.779Z,0.30
2023-03-25T22:23:49.897Z,0.47
2023-03-25T22:26:17.672Z,0.40
2023-03-25T22:28:44.746Z,0.32
2023-03-25T22:31:17.772Z,0.40
2023-03-25T22:33:45.452Z,0.52
2023-03-25T22:36:16.244Z,0.47
2023-03-25T22:38:45.417Z,0.35
2023-03-25T22:41:15.337Z,0.45
2023-03-25T22:43:42.766Z,0.45
2023-03-25T22:46:09.784Z,0.50
2023-03-25T22:48:39.264Z,0.70
2023-03-25T22:51:11.436Z,0.40
2023-03-25T22:53:38.908Z,0.35
2023-03-25T22:56:09.949Z,0.40
2023-03-25T22:58:37.963Z,0.40
2023-03-25T23:01:07.706Z,0.45
2023-03-25T23:03:34.386Z,0.40
2023-03-25T23:06:06.308Z,0.40
2023-03-25T23:08:35.756Z,0.30
2023-03-25T23:11:08.756Z,0.43
2023-03-25T23:13:35.584Z,0.50
2023-03-25T23:16:08.718Z,0.40
2023-03-25T23:18:36.801Z,0.40
2023-03-25T23:21:03.806Z,0.40
2023-03-25T23:23:30.878Z,0.47
2023-03-25T23:26:14.381Z,0.50
2023-03-25T23:28:41.854Z,0.40
2023-03-25T23:31:13.114Z,0.40
2023-03-25T23:33:40.830Z,0.20
2023-03-25T23:36:09.695Z,0.60
2023-03-25T23:38:37.126Z,0.40
2023-03-25T23:41:17.289Z,0.40
2023-03-25T23:43:44.444Z,0.40
2023-03-25T23:46:12.674Z,0.60
2023-03-25T23:48:43.115Z,0.30
2023-03-25T23:51:17.489Z,0.50
2023-03-25T23:53:46.923Z,0.40
2023-03-25T23:56:15.873Z,0.30
2023-03-25T23:58:43.125Z,0.40
